createdAt,value
2018-10-02T00:02:05.842Z,99.90
2018-10-02T00:04:33.983Z,99.90
2018-10-02T00:07:02.579Z,99.90
2018-10-02T00:09:30.652Z,99.90
2018-10-02T00:12:05.010Z,99.90
2018-10-02T00:14:33.126Z,99.90
2018-10-02T00:17:01.166Z,99.90
2018-10-02T00:19:29.599Z,99.90
2018-10-02T00:21:58.438Z,99.90
2018-10-02T00:24:26.370Z,99.90
2018-10-02T00:26:54.320Z,99.90
2018-10-02T00:29:22.308Z,99.90
2018-10-02T00:31:50.425Z,99.90
2018-10-02T00:34:18.457Z,99.90
2018-10-02T00:36:46.595Z,99.90
2018-10-02T00:39:14.514Z,99.90
2018-10-02T00:41:42.426Z,99.90
2018-10-02T00:44:10.775Z,99.90
2018-10-02T00:46:39.058Z,99.90
2018-10-02T00:49:07.065Z,99.90
2018-10-02T00:51:35.755Z,99.90
2018-10-02T00:54:03.562Z,99.90
2018-10-02T00:56:31.991Z,99.90
2018-10-02T00:59:00.234Z,99.90
2018-10-02T01:01:28.194Z,99.90
2018-10-02T01:03:56.347Z,99.90
2018-10-02T01:06:24.662Z,99.90
2018-10-02T01:08:53.027Z,99.90
2018-10-02T01:11:21.092Z,99.90
2018-10-02T01:13:49.482Z,99.90
2018-10-02T01:16:17.465Z,99.90
2018-10-02T01:18:45.832Z,99.90
2018-10-02T01:21:14.327Z,99.90
2018-10-02T01:23:42.288Z,99.90
2018-10-02T01:26:10.078Z,99.90
2018-10-02T01:28:38.435Z,99.90
2018-10-02T01:31:06.958Z,99.90
2018-10-02T01:33:34.944Z,99.90
2018-10-02T01:36:03.088Z,99.90
2018-10-02T01:38:31.081Z,99.90
2018-10-02T01:40:59.264Z,99.90
2018-10-02T01:43:27.254Z,99.90
2018-10-02T01:45:55.354Z,99.90
2018-10-02T01:48:23.223Z,99.90
2018-10-02T01:50:51.198Z,99.90
2018-10-02T01:53:19.068Z,99.90
2018-10-02T01:55:47.839Z,99.90
2018-10-02T01:58:16.078Z,99.90
2018-10-02T02:00:44.194Z,99.90
2018-10-02T02:03:12.348Z,99.90
2018-10-02T02:05:40.606Z,99.90
2018-10-02T02:08:08.761Z,99.90
2018-10-02T02:10:38.079Z,99.90
2018-10-02T02:13:06.101Z,99.90
2018-10-02T02:15:34.325Z,99.90
2018-10-02T02:18:02.729Z,99.90
2018-10-02T02:20:30.758Z,99.90
2018-10-02T02:22:58.672Z,99.90
2018-10-02T02:25:26.665Z,99.90
2018-10-02T02:27:54.492Z,99.90
2018-10-02T02:30:22.513Z,99.90
2018-10-02T02:32:50.973Z,99.90
2018-10-02T02:35:19.094Z,99.90
2018-10-02T02:37:47.107Z,99.90
2018-10-02T02:40:18.001Z,99.90
2018-10-02T02:42:46.668Z,99.90
2018-10-02T02:45:14.563Z,99.90
2018-10-02T02:47:48.115Z,99.90
2018-10-02T02:50:36.431Z,99.90
2018-10-02T02:53:08.867Z,99.90
2018-10-02T02:55:37.511Z,99.90
2018-10-02T02:58:05.395Z,99.90
2018-10-02T03:00:33.302Z,99.90
2018-10-02T03:03:01.112Z,99.90
2018-10-02T03:05:28.998Z,99.90
2018-10-02T03:07:57.013Z,99.90
2018-10-02T03:10:24.968Z,99.90
2018-10-02T03:12:52.748Z,99.90
2018-10-02T03:15:20.595Z,99.90
2018-10-02T03:17:48.524Z,99.90
2018-10-02T03:20:16.761Z,99.90
2018-10-02T03:22:45.302Z,99.90
2018-10-02T03:25:13.156Z,99.90
2018-10-02T03:27:40.945Z,99.90
2018-10-02T03:30:08.910Z,99.90
2018-10-02T03:32:37.413Z,99.90
2018-10-02T03:35:05.878Z,99.90
2018-10-02T03:37:33.710Z,99.90
2018-10-02T03:40:01.778Z,99.90
2018-10-02T03:42:29.982Z,99.90
2018-10-02T03:44:57.879Z,99.90
2018-10-02T03:47:25.860Z,99.90
2018-10-02T03:49:54.071Z,99.90
2018-10-02T03:52:22.292Z,99.90
2018-10-02T03:54:50.146Z,99.90
2018-10-02T03:57:19.220Z,99.90
2018-10-02T03:59:47.141Z,99.90
2018-10-02T04:02:15.048Z,99.90
2018-10-02T04:04:43.054Z,99.90
2018-10-02T04:07:11.289Z,99.90
2018-10-02T04:09:39.279Z,99.90
2018-10-02T04:12:07.168Z,99.90
2018-10-02T04:14:35.899Z,99.90
2018-10-02T04:17:04.277Z,99.90
2018-10-02T04:19:32.254Z,99.90
2018-10-02T04:22:00.578Z,99.90
2018-10-02T04:24:28.933Z,99.90
2018-10-02T04:27:00.650Z,99.90
2018-10-02T04:29:28.818Z,99.90
2018-10-02T04:31:56.654Z,99.90
2018-10-02T04:34:24.626Z,99.90
2018-10-02T04:36:52.734Z,99.90
2018-10-02T04:39:20.913Z,99.90
2018-10-02T04:41:48.797Z,99.90
2018-10-02T04:44:16.756Z,99.90
2018-10-02T04:46:44.557Z,99.90
2018-10-02T04:49:12.429Z,99.90
2018-10-02T04:51:40.348Z,99.90
2018-10-02T04:54:08.372Z,99.90
2018-10-02T04:56:36.361Z,99.90
2018-10-02T04:59:04.337Z,99.90
2018-10-02T05:01:32.260Z,99.90
2018-10-02T05:04:00.111Z,99.90
2018-10-02T05:06:27.986Z,99.90
2018-10-02T05:08:55.801Z,99.90
2018-10-02T05:11:23.940Z,99.90
2018-10-02T05:13:51.887Z,99.90
2018-10-02T05:16:19.758Z,99.90
2018-10-02T05:18:47.604Z,99.90
2018-10-02T05:21:15.637Z,99.90
2018-10-02T05:23:43.818Z,99.90
2018-10-02T05:26:11.876Z,99.90
2018-10-02T05:28:39.828Z,99.90
2018-10-02T05:31:08.158Z,99.90
2018-10-02T05:33:36.364Z,99.90
2018-10-02T05:36:04.250Z,99.90
2018-10-02T05:38:32.453Z,99.90
2018-10-02T05:41:00.515Z,99.90
2018-10-02T05:43:28.335Z,99.90
2018-10-02T05:45:56.234Z,99.90
2018-10-02T05:48:24.101Z,99.90
2018-10-02T05:50:52.452Z,99.90
2018-10-02T05:53:20.395Z,99.90
2018-10-02T05:55:48.588Z,99.90
2018-10-02T05:58:16.561Z,99.90
2018-10-02T06:00:44.639Z,99.90
2018-10-02T06:03:12.601Z,99.90
2018-10-02T06:05:40.496Z,99.90
2018-10-02T06:08:08.296Z,99.90
2018-10-02T06:10:36.315Z,99.90
2018-10-02T06:13:05.165Z,99.90
2018-10-02T06:15:33.192Z,99.90
2018-10-02T06:18:01.639Z,99.90
2018-10-02T06:20:29.746Z,99.90
2018-10-02T06:22:57.709Z,99.90
2018-10-02T06:25:25.724Z,99.90
2018-10-02T06:27:53.716Z,99.90
2018-10-02T06:30:21.966Z,99.90
2018-10-02T06:32:51.623Z,99.90
2018-10-02T06:35:19.590Z,99.90
2018-10-02T06:37:47.780Z,99.90
2018-10-02T06:40:15.910Z,99.90
2018-10-02T06:42:44.588Z,99.90
2018-10-02T06:45:12.755Z,99.90
2018-10-02T06:47:41.430Z,99.90
2018-10-02T06:50:10.047Z,99.90
2018-10-02T06:52:39.034Z,99.90
2018-10-02T06:55:07.901Z,99.90
2018-10-02T06:57:36.507Z,99.90
2018-10-02T07:00:04.657Z,99.90
2018-10-02T07:02:33.082Z,99.90
2018-10-02T07:05:01.977Z,99.90
2018-10-02T07:07:29.952Z,99.90
2018-10-02T07:09:58.029Z,99.90
2018-10-02T07:12:26.586Z,99.90
2018-10-02T07:14:55.122Z,99.90
2018-10-02T07:17:23.427Z,99.90
2018-10-02T07:19:51.569Z,99.90
2018-10-02T07:22:19.707Z,99.90
2018-10-02T07:24:48.084Z,99.90
2018-10-02T07:27:17.758Z,99.90
2018-10-02T07:29:45.729Z,99.90
2018-10-02T07:32:14.827Z,99.90
2018-10-02T07:34:43.415Z,99.90
2018-10-02T07:37:12.247Z,99.90
2018-10-02T07:39:42.592Z,99.90
2018-10-02T07:42:11.510Z,99.90
2018-10-02T07:44:39.629Z,99.90
2018-10-02T07:47:08.845Z,99.90
2018-10-02T07:49:37.495Z,99.90
2018-10-02T07:52:05.687Z,99.60
2018-10-02T07:54:34.008Z,99.70
2018-10-02T07:57:02.064Z,99.40
2018-10-02T07:59:30.317Z,99.80
2018-10-02T08:01:58.217Z,99.90
2018-10-02T08:04:27.298Z,99.90
2018-10-02T08:06:56.330Z,99.90
2018-10-02T08:09:24.594Z,99.90
2018-10-02T08:11:52.517Z,99.40
2018-10-02T08:14:22.020Z,99.20
2018-10-02T08:16:49.936Z,99.40
2018-10-02T08:19:17.901Z,99.00
2018-10-02T08:21:45.853Z,98.70
2018-10-02T08:24:13.831Z,99.00
2018-10-02T08:26:41.887Z,99.00
2018-10-02T08:29:09.973Z,98.90
2018-10-02T08:31:37.958Z,98.90
2018-10-02T08:34:05.872Z,98.90
2018-10-02T08:36:36.425Z,98.60
2018-10-02T08:39:06.867Z,98.30
2018-10-02T08:41:35.529Z,98.90
2018-10-02T08:44:03.548Z,98.80
2018-10-02T08:46:31.425Z,99.10
2018-10-02T08:48:59.744Z,99.10
2018-10-02T08:51:27.593Z,99.30
2018-10-02T08:53:55.951Z,99.40
2018-10-02T08:56:24.219Z,99.60
2018-10-02T08:58:52.082Z,99.90
2018-10-02T09:01:20.140Z,99.90
2018-10-02T09:03:48.161Z,99.90
2018-10-02T09:06:15.953Z,99.90
2018-10-02T09:08:44.175Z,99.90
2018-10-02T09:11:12.287Z,99.90
2018-10-02T09:13:40.293Z,99.70
2018-10-02T09:16:08.572Z,99.90
2018-10-02T09:18:36.523Z,99.40
2018-10-02T09:21:04.425Z,99.40
2018-10-02T09:23:32.824Z,99.40
2018-10-02T09:26:00.935Z,99.70
2018-10-02T09:28:28.742Z,99.10
2018-10-02T09:31:02.474Z,99.20
2018-10-02T09:33:35.951Z,99.70
2018-10-02T09:37:13.224Z,98.80
2018-10-02T09:39:46.721Z,99.10
2018-10-02T09:42:20.706Z,98.80
2018-10-02T09:44:48.856Z,99.30
2018-10-02T09:47:17.326Z,98.70
2018-10-02T09:49:45.395Z,98.70
2018-10-02T09:52:13.399Z,98.30
2018-10-02T09:54:41.242Z,98.90
2018-10-02T09:57:09.707Z,98.60
2018-10-02T09:59:37.676Z,98.80
2018-10-02T10:02:42.260Z,98.90
2018-10-02T10:05:10.335Z,98.50
2018-10-02T10:07:38.379Z,99.20
2018-10-02T10:10:07.036Z,99.00
2018-10-02T10:12:35.306Z,99.20
2018-10-02T10:15:03.588Z,99.60
2018-10-02T10:17:31.759Z,99.80
2018-10-02T10:19:59.998Z,99.90
2018-10-02T10:22:28.694Z,99.60
2018-10-02T10:24:56.837Z,99.90
2018-10-02T10:27:25.078Z,99.90
2018-10-02T10:29:53.398Z,99.80
2018-10-02T10:32:21.574Z,99.70
2018-10-02T10:34:49.531Z,99.40
2018-10-02T10:37:18.778Z,99.80
2018-10-02T10:39:47.316Z,99.80
2018-10-02T10:42:15.897Z,99.70
2018-10-02T10:44:44.429Z,99.60
2018-10-02T10:47:12.251Z,99.60
2018-10-02T10:49:40.365Z,99.90
2018-10-02T10:52:08.460Z,99.50
2018-10-02T10:54:36.409Z,99.40
2018-10-02T10:57:04.657Z,99.10
2018-10-02T10:59:32.922Z,99.30
2018-10-02T11:02:00.840Z,99.40
2018-10-02T11:04:28.899Z,99.30
2018-10-02T11:06:57.913Z,99.50
2018-10-02T11:09:25.834Z,99.10
2018-10-02T11:11:53.916Z,99.70
2018-10-02T11:14:22.807Z,99.60
2018-10-02T11:16:50.799Z,99.80
2018-10-02T11:19:18.662Z,99.90
2018-10-02T11:21:46.557Z,99.90
2018-10-02T11:24:14.495Z,99.90
2018-10-02T11:26:42.594Z,99.90
2018-10-02T11:29:10.545Z,99.90
2018-10-02T11:31:38.522Z,99.90
2018-10-02T11:34:06.503Z,99.90
2018-10-02T11:36:35.517Z,99.90
2018-10-02T11:39:04.806Z,99.90
2018-10-02T11:41:33.012Z,99.90
2018-10-02T11:44:01.145Z,99.90
2018-10-02T11:46:29.261Z,99.90
2018-10-02T11:48:57.309Z,99.90
2018-10-02T11:51:26.398Z,99.90
2018-10-02T11:53:54.445Z,99.90
2018-10-02T11:56:23.657Z,99.90
2018-10-02T11:58:51.873Z,99.90
2018-10-02T12:01:20.456Z,99.90
2018-10-02T12:03:48.821Z,99.90
2018-10-02T12:06:16.951Z,99.90
2018-10-02T12:08:45.538Z,99.90
2018-10-02T12:11:14.055Z,99.90
2018-10-02T12:13:42.962Z,99.90
2018-10-02T12:16:11.093Z,99.90
2018-10-02T12:18:39.251Z,99.90
2018-10-02T12:21:07.475Z,99.90
2018-10-02T12:23:35.816Z,99.90
2018-10-02T12:26:03.914Z,99.90
2018-10-02T12:28:32.042Z,99.90
2018-10-02T12:31:00.098Z,99.90
2018-10-02T12:33:27.981Z,99.90
2018-10-02T12:35:56.076Z,99.90
2018-10-02T12:38:24.178Z,99.90
2018-10-02T12:40:52.018Z,99.90
2018-10-02T12:43:20.007Z,99.90
2018-10-02T12:45:48.571Z,99.90
2018-10-02T12:48:16.686Z,99.90
2018-10-02T12:50:45.072Z,99.90
2018-10-02T12:53:13.089Z,99.90
2018-10-02T12:55:41.589Z,99.90
2018-10-02T12:58:10.398Z,99.90
2018-10-02T13:00:38.679Z,99.90
2018-10-02T13:03:06.456Z,99.90
2018-10-02T13:05:34.611Z,99.90
2018-10-02T13:08:03.223Z,99.90
2018-10-02T13:10:31.250Z,99.90
2018-10-02T13:12:59.429Z,99.90
2018-10-02T13:15:27.937Z,99.90
2018-10-02T13:17:55.939Z,99.90
2018-10-02T13:20:23.942Z,99.90
2018-10-02T13:22:52.413Z,99.90
2018-10-02T13:25:20.724Z,99.90
2018-10-02T13:27:49.540Z,99.90
2018-10-02T13:30:18.056Z,99.90
2018-10-02T13:32:46.103Z,99.90
2018-10-02T13:35:14.560Z,99.90
2018-10-02T13:37:42.729Z,99.90
2018-10-02T13:40:10.588Z,99.90
2018-10-02T13:42:39.139Z,99.90
2018-10-02T13:45:07.082Z,99.90
2018-10-02T13:47:34.971Z,99.90
2018-10-02T13:50:03.448Z,99.90
2018-10-02T13:52:32.345Z,99.90
2018-10-02T13:55:00.488Z,99.90
2018-10-02T13:57:28.737Z,99.90
2018-10-02T13:59:56.858Z,99.90
2018-10-02T14:02:25.131Z,99.90
2018-10-02T14:04:53.064Z,99.70
2018-10-02T14:07:22.400Z,99.60
2018-10-02T14:09:50.690Z,99.40
2018-10-02T14:12:18.702Z,99.60
2018-10-02T14:14:47.473Z,99.50
2018-10-02T14:17:16.636Z,99.90
2018-10-02T14:19:44.555Z,99.80
2018-10-02T14:22:12.707Z,99.90
2018-10-02T14:24:40.555Z,99.90
2018-10-02T14:27:08.378Z,99.90
2018-10-02T14:29:36.395Z,99.90
2018-10-02T14:32:04.230Z,99.90
2018-10-02T14:34:32.097Z,99.70
2018-10-02T14:37:00.334Z,99.90
2018-10-02T14:42:03.311Z,98.90
2018-10-02T14:44:31.685Z,99.30
2018-10-02T14:46:59.892Z,98.90
2018-10-02T14:49:28.285Z,99.00
2018-10-02T14:51:56.643Z,98.90
2018-10-02T14:54:24.906Z,98.50
2018-10-02T14:56:53.048Z,98.90
2018-10-02T14:59:21.767Z,98.80
2018-10-02T15:01:49.790Z,99.10
2018-10-02T15:04:17.736Z,99.10
2018-10-02T15:06:45.920Z,98.70
2018-10-02T15:09:13.904Z,99.30
2018-10-02T15:11:41.990Z,99.90
2018-10-02T15:14:09.988Z,99.70
2018-10-02T15:16:38.094Z,99.90
2018-10-02T15:19:07.008Z,99.90
2018-10-02T15:21:35.782Z,99.90
2018-10-02T15:24:03.885Z,99.90
2018-10-02T15:26:31.891Z,99.90
2018-10-02T15:28:59.811Z,99.90
2018-10-02T15:31:27.858Z,99.90
2018-10-02T15:33:55.903Z,99.90
2018-10-02T15:36:23.894Z,99.90
2018-10-02T15:38:51.849Z,99.90
2018-10-02T15:41:20.143Z,99.90
2018-10-02T15:43:48.157Z,99.90
2018-10-02T15:46:16.579Z,99.90
2018-10-02T15:48:45.050Z,99.90
2018-10-02T15:51:13.222Z,99.90
2018-10-02T15:53:41.233Z,99.90
2018-10-02T15:56:09.625Z,99.90
2018-10-02T15:58:37.852Z,99.90
2018-10-02T16:01:06.464Z,99.90
2018-10-02T16:03:34.687Z,99.90
2018-10-02T16:06:03.092Z,99.90
2018-10-02T16:08:31.068Z,99.90
2018-10-02T16:10:59.064Z,99.90
2018-10-02T16:13:27.972Z,99.90
2018-10-02T16:15:56.074Z,99.90
2018-10-02T16:18:24.783Z,99.90
2018-10-02T16:20:53.298Z,99.90
2018-10-02T16:23:21.390Z,99.90
2018-10-02T16:25:49.520Z,99.90
2018-10-02T16:28:17.597Z,99.90
2018-10-02T16:30:45.752Z,99.90
2018-10-02T16:33:13.774Z,99.90
2018-10-02T16:35:41.784Z,99.90
2018-10-02T16:38:09.834Z,99.90
2018-10-02T16:40:37.847Z,99.90
2018-10-02T16:43:05.793Z,99.90
2018-10-02T16:45:33.814Z,99.90
2018-10-02T16:48:01.873Z,99.90
2018-10-02T16:50:30.065Z,99.90
2018-10-02T16:52:57.896Z,99.90
2018-10-02T16:55:25.910Z,99.90
2018-10-02T16:57:54.256Z,99.90
2018-10-02T17:00:22.278Z,99.90
2018-10-02T17:02:50.695Z,99.90
2018-10-02T17:05:18.913Z,99.90
2018-10-02T17:07:46.959Z,99.90
2018-10-02T17:10:14.954Z,99.90
2018-10-02T17:12:43.157Z,99.90
2018-10-02T17:15:11.189Z,99.90
2018-10-02T17:17:39.451Z,99.90
2018-10-02T17:20:07.799Z,99.90
2018-10-02T17:22:36.329Z,99.90
2018-10-02T17:25:04.380Z,99.90
2018-10-02T17:27:33.418Z,99.90
2018-10-02T17:30:02.008Z,99.90
2018-10-02T17:32:31.118Z,99.90
2018-10-02T17:34:59.510Z,99.90
2018-10-02T17:37:28.528Z,99.90
2018-10-02T17:39:56.621Z,99.90
2018-10-02T17:42:24.505Z,99.90
2018-10-02T17:44:52.613Z,99.90
2018-10-02T17:47:20.656Z,99.90
2018-10-02T17:49:49.425Z,99.90
2018-10-02T17:52:17.838Z,99.90
2018-10-02T17:54:46.261Z,99.90
2018-10-02T17:57:14.103Z,99.90
2018-10-02T17:59:42.273Z,99.90
2018-10-02T18:02:10.303Z,99.90
2018-10-02T18:04:38.354Z,99.90
2018-10-02T18:07:06.394Z,99.90
2018-10-02T18:09:34.417Z,99.90
2018-10-02T18:12:02.360Z,99.90
2018-10-02T18:14:30.352Z,99.90
2018-10-02T18:17:02.056Z,99.90
2018-10-02T18:19:30.050Z,99.90
2018-10-02T18:21:57.947Z,99.90
2018-10-02T18:24:26.253Z,99.90
2018-10-02T18:26:54.213Z,99.90
2018-10-02T18:29:22.133Z,99.90
2018-10-02T18:31:50.574Z,99.90
2018-10-02T18:34:19.684Z,99.90
2018-10-02T18:36:48.221Z,99.90
2018-10-02T18:39:21.628Z,99.90
2018-10-02T18:41:57.043Z,99.90
2018-10-02T18:44:25.232Z,99.90
2018-10-02T18:46:53.257Z,99.90
2018-10-02T18:49:21.405Z,99.90
2018-10-02T18:51:49.718Z,99.90
2018-10-02T18:54:17.879Z,99.90
2018-10-02T18:56:46.134Z,99.90
2018-10-02T18:59:14.277Z,99.90
2018-10-02T19:01:42.692Z,99.90
2018-10-02T19:04:10.669Z,99.90
2018-10-02T19:06:40.519Z,99.90
2018-10-02T19:09:12.303Z,99.90
2018-10-02T19:11:47.307Z,99.90
2018-10-02T19:14:16.991Z,99.90
2018-10-02T19:16:46.514Z,99.90
2018-10-02T19:19:20.109Z,99.90
2018-10-02T19:21:48.896Z,99.90
2018-10-02T19:24:18.389Z,99.90
2018-10-02T19:26:46.627Z,99.90
2018-10-02T19:29:15.134Z,99.90
2018-10-02T19:31:48.896Z,99.90
2018-10-02T19:34:17.609Z,99.90
2018-10-02T19:36:45.898Z,99.90
2018-10-02T19:39:18.375Z,99.90
2018-10-02T19:41:46.903Z,99.90
2018-10-02T19:44:15.067Z,99.90
2018-10-02T19:46:49.165Z,99.90
2018-10-02T19:49:20.804Z,99.90
2018-10-02T19:51:55.229Z,99.90
2018-10-02T19:54:24.282Z,99.90
2018-10-02T19:56:52.277Z,99.90
2018-10-02T19:59:21.592Z,99.90
2018-10-02T20:01:49.713Z,99.90
2018-10-02T20:04:19.337Z,99.90
2018-10-02T20:06:48.432Z,99.90
2018-10-02T20:09:21.607Z,99.90
2018-10-02T20:11:49.822Z,99.90
2018-10-02T20:14:19.050Z,99.90
2018-10-02T20:16:48.290Z,99.90
2018-10-02T20:19:17.854Z,99.90
2018-10-02T20:21:45.822Z,99.90
2018-10-02T20:24:13.851Z,99.90
2018-10-02T20:26:41.935Z,99.90
2018-10-02T20:29:10.221Z,99.90
2018-10-02T20:31:41.863Z,99.90
2018-10-02T20:34:10.154Z,99.90
2018-10-02T20:36:38.445Z,99.90
2018-10-02T20:39:10.092Z,99.90
2018-10-02T20:41:38.498Z,99.90
2018-10-02T20:44:07.363Z,99.90
2018-10-02T20:46:36.672Z,99.90
2018-10-02T20:49:05.177Z,99.90
2018-10-02T20:51:33.556Z,99.90
2018-10-02T20:54:01.435Z,99.90
2018-10-02T20:56:30.846Z,99.90
2018-10-02T20:58:59.724Z,99.90
2018-10-02T21:01:28.668Z,99.90
2018-10-02T21:03:56.729Z,99.90
2018-10-02T21:06:25.670Z,99.90
2018-10-02T21:08:53.720Z,99.90
2018-10-02T21:11:22.208Z,99.90
2018-10-02T21:13:50.187Z,99.90
2018-10-02T21:16:20.243Z,99.90
2018-10-02T21:18:48.559Z,99.90
2018-10-02T21:21:16.497Z,99.90
2018-10-02T21:23:44.449Z,99.90
2018-10-02T21:26:12.356Z,99.90
2018-10-02T21:28:40.726Z,99.90
2018-10-02T21:31:08.829Z,99.90
2018-10-02T21:33:36.768Z,99.90
2018-10-02T21:36:05.234Z,99.90
2018-10-02T21:38:33.151Z,99.90
2018-10-02T21:41:00.962Z,99.90
2018-10-02T21:43:29.028Z,99.90
2018-10-02T21:45:57.535Z,99.90
2018-10-02T21:48:25.951Z,99.90
2018-10-02T21:50:54.045Z,99.90
2018-10-02T21:53:22.071Z,99.90
2018-10-02T21:55:50.157Z,99.90
2018-10-02T21:58:18.229Z,99.90
2018-10-02T22:00:46.704Z,99.90
2018-10-02T22:03:14.667Z,99.90
2018-10-02T22:05:42.622Z,99.90
2018-10-02T22:08:10.709Z,99.90
2018-10-02T22:10:38.741Z,99.90
2018-10-02T22:13:07.218Z,99.90
2018-10-02T22:15:35.233Z,99.90
2018-10-02T22:18:04.714Z,99.90
2018-10-02T22:20:32.972Z,99.90
2018-10-02T22:23:01.285Z,99.90
2018-10-02T22:25:29.611Z,99.90
2018-10-02T22:27:58.240Z,99.90
2018-10-02T22:30:26.239Z,99.90
2018-10-02T22:32:54.863Z,99.90
2018-10-02T22:35:23.075Z,99.90
2018-10-02T22:37:50.871Z,99.90
2018-10-02T22:40:19.192Z,99.90
2018-10-02T22:42:47.859Z,99.90
2018-10-02T22:45:17.798Z,99.90
2018-10-02T22:47:46.196Z,99.90
2018-10-02T22:50:14.207Z,99.90
2018-10-02T22:52:42.387Z,99.90
2018-10-02T22:55:10.238Z,99.90
2018-10-02T22:57:38.829Z,99.90
2018-10-02T23:00:06.904Z,99.90
2018-10-02T23:02:35.259Z,99.90
2018-10-02T23:05:03.362Z,99.90
2018-10-02T23:07:32.440Z,99.90
2018-10-02T23:10:00.422Z,99.90
2018-10-02T23:12:28.346Z,99.90
2018-10-02T23:14:56.569Z,99.90
2018-10-02T23:17:25.438Z,99.90
2018-10-02T23:19:53.658Z,99.90
2018-10-02T23:22:21.477Z,99.90
2018-10-02T23:24:49.442Z,99.90
2018-10-02T23:27:17.449Z,99.90
2018-10-02T23:29:48.163Z,99.90
2018-10-02T23:32:16.574Z,99.90
2018-10-02T23:34:44.782Z,99.90
2018-10-02T23:37:14.469Z,99.90
2018-10-02T23:39:44.906Z,99.90
2018-10-02T23:42:12.778Z,99.90
2018-10-02T23:44:40.580Z,99.90
2018-10-02T23:47:09.619Z,99.90
2018-10-02T23:49:37.893Z,99.90
2018-10-02T23:52:05.926Z,99.90
2018-10-02T23:54:34.145Z,99.90
2018-10-02T23:57:02.897Z,99.90
2018-10-02T23:59:31.041Z,99.90
